Time,TemperatureF,DewpointF,PressureIn,WindDirection,WindDirectionDegrees,WindSpeedMPH,WindSpeedGustMPH,Humidity,HourlyPrecipIn,Conditions,Clouds,dailyrainin,SoftwareType,DateUTC
2013-05-31 00:04:00,73.8,71.6,29.69,SE,135,2.2,2.2,93,0.00,,,1.07,WUHU216EASYWX,2013-05-31 05:04:00,
2013-05-31 00:09:00,73.8,71.6,29.69,SE,135,2.2,2.2,93,0.00,,,0.00,WUHU216EASYWX,2013-05-31 05:09:00,
2013-05-31 00:14:00,73.6,71.4,29.69,East,90,4.5,4.5,93,0.00,,,0.00,WUHU216EASYWX,2013-05-31 05:14:00,
2013-05-31 00:19:00,73.4,71.2,29.68,South,180,1.6,1.6,93,0.00,,,0.00,WUHU216EASYWX,2013-05-31 05:19:00,
2013-05-31 00:24:00,73.4,71.2,29.69,East,90,4.5,4.5,93,0.00,,,0.00,WUHU216EASYWX,2013-05-31 05:24:00,
2013-05-31 00:29:00,73.4,71.5,29.69,SE,126,3.4,3.8,94,0.00,,,0.00,WUHU216EASYWX,2013-05-31 05:29:00,
2013-05-31 00:34:00,73.6,71.4,29.68,East,90,2.2,2.2,93,0.00,,,0.00,WUHU216EASYWX,2013-05-31 05:34:00,
2013-05-31 00:39:00,73.6,71.4,29.68,East,90,2.2,6.0,93,0.00,,,0.00,WUHU216EASYWX,2013-05-31 05:39:00,
2013-05-31 00:44:00,73.4,71.5,29.68,SW,225,4.5,4.5,94,0.00,,,0.00,WUHU216EASYWX,2013-05-31 05:44:00,
2013-05-31 00:49:00,73.4,71.5,29.69,SE,135,2.2,2.2,94,0.00,,,0.00,WUHU216EASYWX,2013-05-31 05:49:00,
2013-05-31 00:54:00,73.6,71.8,29.69,SW,225,1.6,1.6,94,0.00,,,0.00,WUHU216EASYWX,2013-05-31 05:54:00,
2013-05-31 00:59:00,73.8,71.6,29.68,South,180,4.6,5.4,93,0.00,,,0.00,WUHU216EASYWX,2013-05-31 05:59:00,
2013-05-31 01:04:00,73.6,71.4,29.68,East,90,3.8,3.8,93,0.00,,,0.00,WUHU216EASYWX,2013-05-31 06:04:00,
2013-05-31 01:09:00,73.6,71.4,29.68,SE,135,3.1,3.1,93,0.00,,,0.00,WUHU216EASYWX,2013-05-31 06:09:00,
2013-05-31 01:14:00,73.8,71.6,29.67,NW,315,3.1,3.1,93,0.00,,,0.00,WUHU216EASYWX,2013-05-31 06:14:00,
2013-05-31 01:19:00,73.8,71.6,29.67,NW,315,3.1,3.1,93,0.00,,,0.00,WUHU216EASYWX,2013-05-31 06:19:00,
2013-05-31 01:24:00,73.8,71.6,29.67,SSE,158,5.4,5.4,93,0.00,,,0.00,WUHU216EASYWX,2013-05-31 06:24:00,
2013-05-31 01:29:00,73.8,71.6,29.67,SE,135,3.1,3.1,93,0.00,,,0.00,WUHU216EASYWX,2013-05-31 06:29:00,
2013-05-31 01:34:00,74.1,72.0,29.67,SSE,165,2.3,3.1,93,0.00,,,0.00,WUHU216EASYWX,2013-05-31 06:34:00,
2013-05-31 01:39:00,74.1,72.0,29.67,South,180,3.1,3.1,93,0.00,,,0.00,WUHU216EASYWX,2013-05-31 06:39:00,
2013-05-31 01:44:00,74.3,72.1,29.67,SW,225,5.4,5.4,93,0.00,,,0.00,WUHU216EASYWX,2013-05-31 06:44:00,
2013-05-31 01:49:00,74.3,72.0,29.67,South,180,6.0,6.0,92,0.00,,,0.00,WUHU216EASYWX,2013-05-31 06:49:00,
2013-05-31 01:54:00,74.5,72.1,29.67,SW,225,4.5,4.5,92,0.00,,,0.00,WUHU216EASYWX,2013-05-31 06:54:00,
2013-05-31 01:59:00,74.5,72.1,29.67,SW,225,4.5,8.3,92,0.00,,,0.00,WUHU216EASYWX,2013-05-31 06:59:00,
2013-05-31 02:04:00,74.5,72.1,29.67,SW,225,3.8,3.8,92,0.00,,,0.00,WUHU216EASYWX,2013-05-31 07:04:00,
2013-05-31 02:09:00,74.7,72.1,29.67,SSE,149,3.3,4.5,92,0.00,,,0.00,WUHU216EASYWX,2013-05-31 07:09:00,
2013-05-31 02:14:00,74.8,72.1,29.67,SW,225,6.0,6.0,91,0.00,,,0.00,WUHU216EASYWX,2013-05-31 07:14:00,
2013-05-31 02:19:00,75.0,72.3,29.67,SW,225,3.1,3.1,91,0.00,,,0.00,WUHU216EASYWX,2013-05-31 07:19:00,
2013-05-31 02:24:00,75.2,72.5,29.67,South,180,4.5,4.5,91,0.00,,,0.00,WUHU216EASYWX,2013-05-31 07:24:00,
2013-05-31 02:29:00,75.2,72.1,29.67,South,180,3.1,3.1,90,0.00,,,0.00,WUHU216EASYWX,2013-05-31 07:29:00,
2013-05-31 02:34:00,75.4,72.3,29.67,East,90,3.8,3.8,90,0.00,,,0.00,WUHU216EASYWX,2013-05-31 07:34:00,
2013-05-31 02:39:00,75.4,72.3,29.67,East,90,3.8,6.9,90,0.00,,,0.00,WUHU216EASYWX,2013-05-31 07:39:00,
2013-05-31 02:44:00,75.6,72.1,29.67,SSW,205,5.7,8.3,89,0.00,,,0.00,WUHU216EASYWX,2013-05-31 07:44:00,
2013-05-31 02:49:00,75.6,72.1,29.67,SW,225,2.2,2.2,89,0.00,,,0.00,WUHU216EASYWX,2013-05-31 07:49:00,
2013-05-31 02:54:00,75.9,72.5,29.67,SE,135,2.2,2.2,89,0.00,,,0.00,WUHU216EASYWX,2013-05-31 07:54:00,
2013-05-31 02:59:00,76.3,72.5,29.67,South,180,4.5,4.5,88,0.00,,,0.00,WUHU216EASYWX,2013-05-31 07:59:00,
2013-05-31 03:04:00,76.5,72.7,29.67,South,180,5.4,5.4,88,0.00,,,0.00,WUHU216EASYWX,2013-05-31 08:04:00,
2013-05-31 03:09:00,77.4,72.5,29.67,East,90,9.9,9.9,85,0.00,,,0.00,WUHU216EASYWX,2013-05-31 08:09:00,
2013-05-31 03:14:00,77.4,72.5,29.67,East,90,9.9,17.5,85,0.00,,,0.00,WUHU216EASYWX,2013-05-31 08:14:00,
2013-05-31 03:19:00,78.1,72.5,29.67,South,173,6.2,6.9,83,0.00,,,0.00,WUHU216EASYWX,2013-05-31 08:19:00,
2013-05-31 03:24:00,77.9,72.7,29.67,South,180,3.1,3.1,84,0.00,,,0.00,WUHU216EASYWX,2013-05-31 08:24:00,
2013-05-31 03:29:00,77.7,72.5,29.68,SE,135,7.6,7.6,84,0.00,,,0.00,WUHU216EASYWX,2013-05-31 08:29:00,
2013-05-31 03:34:00,77.5,72.3,29.68,South,180,6.9,6.9,84,0.00,,,0.00,WUHU216EASYWX,2013-05-31 08:34:00,
2013-05-31 03:39:00,77.9,72.3,29.68,South,180,7.6,7.6,83,0.00,,,0.00,WUHU216EASYWX,2013-05-31 08:39:00,
2013-05-31 03:44:00,78.1,72.5,29.68,SW,225,6.9,6.9,83,0.00,,,0.00,WUHU216EASYWX,2013-05-31 08:44:00,
2013-05-31 03:49:00,78.6,72.7,29.68,SW,225,11.4,11.4,82,0.00,,,0.00,WUHU216EASYWX,2013-05-31 08:49:00,
2013-05-31 03:54:00,78.4,72.5,29.68,East,90,6.0,6.0,82,0.00,,,0.00,WUHU216EASYWX,2013-05-31 08:54:00,
2013-05-31 03:59:00,77.9,72.3,29.68,South,180,4.5,4.5,83,0.00,,,0.00,WUHU216EASYWX,2013-05-31 08:59:00,
2013-05-31 04:04:00,77.7,72.5,29.69,SE,135,6.9,6.9,84,0.00,,,0.00,WUHU216EASYWX,2013-05-31 09:04:00,
2013-05-31 04:09:00,77.4,72.5,29.68,SW,225,3.8,3.8,85,0.00,,,0.00,WUHU216EASYWX,2013-05-31 09:09:00,
2013-05-31 04:14:00,77.2,72.3,29.68,SE,135,5.4,5.4,85,0.00,,,0.00,WUHU216EASYWX,2013-05-31 09:14:00,
2013-05-31 04:19:00,77.2,72.3,29.69,SW,225,3.8,3.8,85,0.00,,,0.00,WUHU216EASYWX,2013-05-31 09:19:00,
2013-05-31 04:24:00,77.5,72.7,29.69,South,180,4.5,4.5,85,0.00,,,0.00,WUHU216EASYWX,2013-05-31 09:24:00,
2013-05-31 04:29:00,77.7,72.5,29.69,South,180,3.8,3.8,84,0.00,,,0.00,WUHU216EASYWX,2013-05-31 09:29:00,
2013-05-31 04:34:00,78.1,72.5,29.69,South,180,6.9,6.9,83,0.00,,,0.00,WUHU216EASYWX,2013-05-31 09:34:00,
2013-05-31 04:39:00,78.4,72.5,29.69,SE,135,6.9,6.9,82,0.00,,,0.00,WUHU216EASYWX,2013-05-31 09:39:00,
2013-05-31 04:44:00,78.8,72.5,29.69,South,180,3.1,3.1,81,0.00,,,0.00,WUHU216EASYWX,2013-05-31 09:44:00,
2013-05-31 04:49:00,78.8,72.5,29.69,South,180,6.0,6.0,81,0.00,,,0.00,WUHU216EASYWX,2013-05-31 09:49:00,
2013-05-31 04:54:00,79.0,72.3,29.69,East,90,9.2,9.2,80,0.00,,,0.00,WUHU216EASYWX,2013-05-31 09:54:00,
2013-05-31 04:59:00,78.8,72.1,29.69,SW,225,6.0,6.0,80,0.00,,,0.00,WUHU216EASYWX,2013-05-31 09:59:00,
2013-05-31 05:04:00,78.8,72.5,29.70,West,270,6.9,6.9,81,0.00,,,0.00,WUHU216EASYWX,2013-05-31 10:04:00,
2013-05-31 05:09:00,78.8,72.1,29.69,South,180,10.8,10.8,80,0.00,,,0.00,WUHU216EASYWX,2013-05-31 10:09:00,
2013-05-31 05:14:00,78.8,72.5,29.70,South,180,5.4,5.4,81,0.00,,,0.00,WUHU216EASYWX,2013-05-31 10:14:00,
2013-05-31 05:19:00,78.8,72.1,29.69,South,180,11.4,11.4,80,0.00,,,0.00,WUHU216EASYWX,2013-05-31 10:19:00,
2013-05-31 05:24:00,78.8,72.1,29.69,SE,135,5.4,5.4,80,0.00,,,0.00,WUHU216EASYWX,2013-05-31 10:24:00,
2013-05-31 05:29:00,78.8,72.1,29.69,SE,135,7.6,7.6,80,0.00,,,0.00,WUHU216EASYWX,2013-05-31 10:29:00,
2013-05-31 05:34:00,78.6,72.3,29.69,SE,135,6.0,6.0,81,0.00,,,0.00,WUHU216EASYWX,2013-05-31 10:34:00,
2013-05-31 05:39:00,78.6,72.3,29.69,SE,135,2.2,2.2,81,0.00,,,0.00,WUHU216EASYWX,2013-05-31 10:39:00,
2013-05-31 05:44:00,78.6,72.3,29.69,South,180,7.6,7.6,81,0.00,,,0.00,WUHU216EASYWX,2013-05-31 10:44:00,
2013-05-31 05:49:00,78.6,72.3,29.69,SE,135,7.6,7.6,81,0.00,,,0.00,WUHU216EASYWX,2013-05-31 10:49:00,
2013-05-31 05:54:00,78.6,72.3,29.69,South,180,10.8,10.8,81,0.00,,,0.00,WUHU216EASYWX,2013-05-31 10:54:00,
2013-05-31 05:59:00,78.4,72.1,29.69,SE,135,3.8,3.8,81,0.00,,,0.00,WUHU216EASYWX,2013-05-31 10:59:00,
2013-05-31 06:04:00,78.4,72.1,29.70,SE,135,5.4,5.4,81,0.00,,,0.00,WUHU216EASYWX,2013-05-31 11:04:00,
2013-05-31 06:09:00,78.3,72.0,29.70,SE,135,7.6,7.6,81,0.00,,,0.00,WUHU216EASYWX,2013-05-31 11:09:00,
2013-05-31 06:14:00,78.3,72.0,29.70,SW,225,6.9,6.9,81,0.00,,,0.00,WUHU216EASYWX,2013-05-31 11:14:00,
2013-05-31 06:19:00,78.3,72.0,29.70,South,180,9.2,9.2,81,0.00,,,0.00,WUHU216EASYWX,2013-05-31 11:19:00,
2013-05-31 06:24:00,78.3,72.0,29.71,SW,225,8.3,8.3,81,0.00,,,0.00,WUHU216EASYWX,2013-05-31 11:24:00,
2013-05-31 06:29:00,78.3,72.0,29.71,WNW,293,5.4,5.4,81,0.00,,,0.00,WUHU216EASYWX,2013-05-31 11:29:00,
2013-05-31 06:34:00,78.3,72.0,29.70,West,270,8.3,8.3,81,0.00,,,0.00,WUHU216EASYWX,2013-05-31 11:34:00,
2013-05-31 06:39:00,78.1,71.8,29.71,SE,135,8.3,8.3,81,0.00,,,0.00,WUHU216EASYWX,2013-05-31 11:39:00,
2013-05-31 06:44:00,78.3,72.0,29.70,South,180,6.9,6.9,81,0.00,,,0.00,WUHU216EASYWX,2013-05-31 11:44:00,
2013-05-31 06:49:00,78.3,72.0,29.70,South,180,8.3,8.3,81,0.00,,,0.00,WUHU216EASYWX,2013-05-31 11:49:00,
2013-05-31 06:54:00,78.3,72.0,29.70,SE,135,7.6,7.6,81,0.00,,,0.00,WUHU216EASYWX,2013-05-31 11:54:00,
2013-05-31 06:59:00,78.3,72.0,29.70,SW,225,5.4,5.4,81,0.00,,,0.00,WUHU216EASYWX,2013-05-31 11:59:00,
2013-05-31 07:04:00,78.3,72.0,29.70,SE,135,4.5,4.5,81,0.00,,,0.00,WUHU216EASYWX,2013-05-31 12:04:00,
2013-05-31 07:09:00,78.4,71.8,29.71,SE,135,6.0,6.0,80,0.00,,,0.00,WUHU216EASYWX,2013-05-31 12:09:00,
2013-05-31 07:14:00,78.4,71.8,29.71,West,270,9.9,9.9,80,0.00,,,0.00,WUHU216EASYWX,2013-05-31 12:14:00,
2013-05-31 07:19:00,78.6,72.0,29.71,South,180,13.7,13.7,80,0.00,,,0.00,WUHU216EASYWX,2013-05-31 12:19:00,
2013-05-31 07:24:00,78.6,72.0,29.71,South,180,7.6,7.6,80,0.00,,,0.00,WUHU216EASYWX,2013-05-31 12:24:00,
2013-05-31 07:29:00,78.6,72.0,29.71,SW,225,6.0,6.0,80,0.00,,,0.00,WUHU216EASYWX,2013-05-31 12:29:00,
2013-05-31 07:34:00,78.8,72.1,29.71,SW,225,5.4,5.4,80,0.00,,,0.00,WUHU216EASYWX,2013-05-31 12:34:00,
2013-05-31 07:39:00,78.8,72.1,29.72,South,180,6.0,6.0,80,0.00,,,0.00,WUHU216EASYWX,2013-05-31 12:39:00,
2013-05-31 07:44:00,78.8,71.8,29.73,South,180,11.4,11.4,79,0.00,,,0.00,WUHU216EASYWX,2013-05-31 12:44:00,
2013-05-31 07:49:00,78.8,71.8,29.72,SE,135,7.6,7.6,79,0.00,,,0.00,WUHU216EASYWX,2013-05-31 12:49:00,
2013-05-31 07:54:00,78.8,71.8,29.72,South,180,6.0,6.0,79,0.00,,,0.00,WUHU216EASYWX,2013-05-31 12:54:00,
2013-05-31 07:59:00,79.0,72.0,29.72,South,180,6.9,6.9,79,0.00,,,0.00,WUHU216EASYWX,2013-05-31 12:59:00,
2013-05-31 08:04:00,79.0,72.0,29.72,SW,225,6.0,6.0,79,0.00,,,0.00,WUHU216EASYWX,2013-05-31 13:04:00,
2013-05-31 08:09:00,79.2,72.1,29.72,South,180,9.9,9.9,79,0.00,,,0.00,WUHU216EASYWX,2013-05-31 13:09:00,
2013-05-31 08:14:00,79.5,72.1,29.73,SW,225,7.6,7.6,78,0.00,,,0.00,WUHU216EASYWX,2013-05-31 13:14:00,
2013-05-31 08:19:00,79.3,72.0,29.73,South,180,5.4,5.4,78,0.00,,,0.00,WUHU216EASYWX,2013-05-31 13:19:00,
2013-05-31 08:24:00,79.3,72.0,29.73,South,180,6.0,6.0,78,0.00,,,0.00,WUHU216EASYWX,2013-05-31 13:24:00,
2013-05-31 08:29:00,79.3,72.0,29.74,SW,225,5.4,5.4,78,0.00,,,0.00,WUHU216EASYWX,2013-05-31 13:29:00,
2013-05-31 08:34:00,79.2,71.8,29.74,SW,225,7.6,7.6,78,0.00,,,0.00,WUHU216EASYWX,2013-05-31 13:34:00,
2013-05-31 08:39:00,79.3,72.0,29.74,South,180,6.0,6.0,78,0.00,,,0.00,WUHU216EASYWX,2013-05-31 13:39:00,
2013-05-31 08:44:00,79.3,72.0,29.75,South,180,5.4,5.4,78,0.00,,,0.00,WUHU216EASYWX,2013-05-31 13:44:00,
2013-05-31 08:49:00,79.3,72.0,29.75,South,180,3.1,3.1,78,0.00,,,0.00,WUHU216EASYWX,2013-05-31 13:49:00,
2013-05-31 08:54:00,79.2,71.8,29.75,South,180,4.5,4.5,78,0.00,,,0.00,WUHU216EASYWX,2013-05-31 13:54:00,
2013-05-31 08:59:00,79.2,71.8,29.76,SW,225,5.4,5.4,78,0.00,,,0.00,WUHU216EASYWX,2013-05-31 13:59:00,
2013-05-31 09:04:00,79.2,71.8,29.76,South,180,3.8,3.8,78,0.00,,,0.00,WUHU216EASYWX,2013-05-31 14:04:00,
2013-05-31 09:09:00,79.0,71.6,29.76,SW,225,6.0,6.0,78,0.00,,,0.00,WUHU216EASYWX,2013-05-31 14:09:00,
2013-05-31 09:14:00,79.0,71.6,29.76,SW,225,9.2,9.2,78,0.00,,,0.00,WUHU216EASYWX,2013-05-31 14:14:00,
2013-05-31 09:19:00,78.8,71.4,29.76,SW,225,6.0,6.0,78,0.00,,,0.00,WUHU216EASYWX,2013-05-31 14:19:00,
2013-05-31 09:24:00,79.0,71.6,29.76,SW,225,2.2,2.2,78,0.00,,,0.00,WUHU216EASYWX,2013-05-31 14:24:00,
2013-05-31 09:29:00,79.0,71.6,29.76,South,180,4.5,4.5,78,0.00,,,0.00,WUHU216EASYWX,2013-05-31 14:29:00,
2013-05-31 09:34:00,79.0,71.6,29.77,SW,225,8.3,8.3,78,0.00,,,0.00,WUHU216EASYWX,2013-05-31 14:34:00,
2013-05-31 09:39:00,79.0,72.0,29.76,South,180,6.0,6.0,79,0.00,,,0.00,WUHU216EASYWX,2013-05-31 14:39:00,
2013-05-31 09:44:00,79.0,71.6,29.77,SW,225,4.5,4.5,78,0.00,,,0.00,WUHU216EASYWX,2013-05-31 14:44:00,
2013-05-31 09:49:00,79.2,71.8,29.77,South,180,5.4,5.4,78,0.00,,,0.00,WUHU216EASYWX,2013-05-31 14:49:00,
2013-05-31 09:54:00,79.3,72.0,29.76,SE,135,4.5,4.5,78,0.00,,,0.00,WUHU216EASYWX,2013-05-31 14:54:00,
2013-05-31 09:59:00,79.7,72.3,29.76,South,180,4.5,4.5,78,0.00,,,0.00,WUHU216EASYWX,2013-05-31 14:59:00,
2013-05-31 10:04:00,79.7,72.0,29.76,SW,225,6.0,6.0,77,0.00,,,0.00,WUHU216EASYWX,2013-05-31 15:04:00,
2013-05-31 10:09:00,80.1,71.8,29.75,SW,225,11.4,11.4,76,0.00,,,0.00,WUHU216EASYWX,2013-05-31 15:09:00,
2013-05-31 10:14:00,81.1,72.5,29.75,SW,225,9.2,9.2,75,0.00,,,0.00,WUHU216EASYWX,2013-05-31 15:14:00,
2013-05-31 10:19:00,80.8,72.1,29.75,SW,225,9.9,9.9,75,0.00,,,0.00,WUHU216EASYWX,2013-05-31 15:19:00,
2013-05-31 10:24:00,81.3,72.7,29.75,SW,225,6.9,6.9,75,0.00,,,0.00,WUHU216EASYWX,2013-05-31 15:24:00,
2013-05-31 10:29:00,81.7,73.0,29.75,SW,225,3.1,3.1,75,0.00,,,0.00,WUHU216EASYWX,2013-05-31 15:29:00,
2013-05-31 10:34:00,81.9,72.9,29.75,South,180,8.3,8.3,74,0.00,,,0.00,WUHU216EASYWX,2013-05-31 15:34:00,
2013-05-31 10:39:00,81.5,72.9,29.75,SE,135,3.8,3.8,75,0.00,,,0.00,WUHU216EASYWX,2013-05-31 15:39:00,
2013-05-31 10:44:00,81.5,72.9,29.75,South,180,5.4,5.4,75,0.00,,,0.00,WUHU216EASYWX,2013-05-31 15:44:00,
2013-05-31 10:49:00,81.3,72.7,29.75,SW,225,6.9,6.9,75,0.00,,,0.00,WUHU216EASYWX,2013-05-31 15:49:00,
2013-05-31 10:54:00,82.0,72.5,29.75,NW,315,8.3,8.3,73,0.00,,,0.00,WUHU216EASYWX,2013-05-31 15:54:00,
2013-05-31 10:59:00,82.2,73.2,29.75,SE,135,5.4,5.4,74,0.00,,,0.00,WUHU216EASYWX,2013-05-31 15:59:00,
2013-05-31 11:04:00,82.6,73.6,29.75,South,180,4.5,4.5,74,0.00,,,0.00,WUHU216EASYWX,2013-05-31 16:04:00,
2013-05-31 11:09:00,82.8,72.9,29.75,South,180,5.4,5.4,72,0.00,,,0.00,WUHU216EASYWX,2013-05-31 16:09:00,
2013-05-31 11:14:00,82.8,72.9,29.75,South,180,5.4,9.9,72,0.00,,,0.00,WUHU216EASYWX,2013-05-31 16:14:00,
2013-05-31 11:43:00,83.8,73.9,29.76,SSW,212,5.7,9.2,72,0.00,,,0.00,WUHU216EASYWX,2013-05-31 16:43:00,
2013-05-31 11:48:00,84.0,73.2,29.76,South,180,5.4,5.4,70,0.00,,,0.00,WUHU216EASYWX,2013-05-31 16:48:00,
2013-05-31 11:53:00,84.2,73.4,29.76,SE,135,4.5,4.5,70,0.00,,,0.00,WUHU216EASYWX,2013-05-31 16:53:00,
2013-05-31 11:58:00,84.6,73.8,29.76,East,90,5.4,5.4,70,0.00,,,0.00,WUHU216EASYWX,2013-05-31 16:58:00,
2013-05-31 12:03:00,84.4,73.2,29.76,SW,225,6.9,6.9,69,0.00,,,0.00,WUHU216EASYWX,2013-05-31 17:03:00,
2013-05-31 12:08:00,84.6,73.8,29.76,SSE,158,5.4,5.4,70,0.00,,,0.00,WUHU216EASYWX,2013-05-31 17:08:00,
2013-05-31 12:13:00,84.7,73.6,29.75,South,180,6.9,6.9,69,0.00,,,0.00,WUHU216EASYWX,2013-05-31 17:13:00,
2013-05-31 12:18:00,84.4,72.7,29.75,SW,225,10.8,10.8,68,0.00,,,0.00,WUHU216EASYWX,2013-05-31 17:18:00,
2013-05-31 12:23:00,84.2,73.4,29.76,East,90,6.9,6.9,70,0.00,,,0.00,WUHU216EASYWX,2013-05-31 17:23:00,
2013-05-31 12:28:00,84.2,73.4,29.76,SE,135,4.5,4.5,70,0.00,,,0.00,WUHU216EASYWX,2013-05-31 17:28:00,
2013-05-31 12:33:00,83.7,73.4,29.76,South,180,4.5,4.5,71,0.00,,,0.00,WUHU216EASYWX,2013-05-31 17:33:00,
2013-05-31 12:38:00,83.3,72.5,29.76,North,0,6.0,6.0,70,0.00,,,0.00,WUHU216EASYWX,2013-05-31 17:38:00,
2013-05-31 12:43:00,83.5,72.7,29.76,West,270,6.0,6.0,70,0.00,,,0.00,WUHU216EASYWX,2013-05-31 17:43:00,
2013-05-31 12:48:00,83.3,72.5,29.75,SW,225,9.9,9.9,70,0.00,,,0.00,WUHU216EASYWX,2013-05-31 17:48:00,
2013-05-31 12:53:00,83.1,72.9,29.76,SW,225,7.6,7.6,71,0.00,,,0.00,WUHU216EASYWX,2013-05-31 17:53:00,
2013-05-31 12:58:00,83.1,72.3,29.75,SW,225,7.6,7.6,70,0.00,,,0.00,WUHU216EASYWX,2013-05-31 17:58:00,
2013-05-31 13:03:00,83.3,72.5,29.75,SW,225,6.0,6.0,70,0.00,,,0.00,WUHU216EASYWX,2013-05-31 18:03:00,
2013-05-31 13:08:00,83.3,72.5,29.75,South,180,9.2,9.2,70,0.00,,,0.00,WUHU216EASYWX,2013-05-31 18:08:00,
2013-05-31 13:13:00,84.2,73.4,29.75,SW,225,5.4,5.4,70,0.00,,,0.00,WUHU216EASYWX,2013-05-31 18:13:00,
2013-05-31 13:18:00,84.7,73.0,29.75,SW,225,6.0,6.0,68,0.00,,,0.00,WUHU216EASYWX,2013-05-31 18:18:00,
2013-05-31 13:23:00,84.4,72.7,29.75,South,180,9.9,9.9,68,0.00,,,0.00,WUHU216EASYWX,2013-05-31 18:23:00,
2013-05-31 13:28:00,84.2,73.0,29.75,SW,225,5.4,5.4,69,0.00,,,0.00,WUHU216EASYWX,2013-05-31 18:28:00,
2013-05-31 13:33:00,84.4,73.6,29.75,SE,135,3.1,3.1,70,0.00,,,0.00,WUHU216EASYWX,2013-05-31 18:33:00,
2013-05-31 13:38:00,84.9,73.6,29.75,South,180,3.8,3.8,69,0.00,,,0.00,WUHU216EASYWX,2013-05-31 18:38:00,
2013-05-31 13:43:00,84.7,73.0,29.75,SW,225,6.9,6.9,68,0.00,,,0.00,WUHU216EASYWX,2013-05-31 18:43:00,
2013-05-31 13:48:00,85.6,73.9,29.75,West,270,3.1,3.1,68,0.00,,,0.00,WUHU216EASYWX,2013-05-31 18:48:00,
2013-05-31 13:53:00,85.3,73.6,29.75,SE,135,6.0,6.0,68,0.00,,,0.00,WUHU216EASYWX,2013-05-31 18:53:00,
2013-05-31 13:58:00,85.3,72.7,29.75,West,270,9.2,9.2,66,0.00,,,0.00,WUHU216EASYWX,2013-05-31 18:58:00,
2013-05-31 14:03:00,85.1,73.4,29.75,West,270,3.8,3.8,68,0.00,,,0.00,WUHU216EASYWX,2013-05-31 19:03:00,
2013-05-31 14:08:00,85.1,73.4,29.74,South,180,4.5,4.5,68,0.00,,,0.00,WUHU216EASYWX,2013-05-31 19:08:00,
2013-05-31 14:13:00,85.1,73.0,29.74,South,180,7.6,7.6,67,0.00,,,0.00,WUHU216EASYWX,2013-05-31 19:13:00,
2013-05-31 14:18:00,84.9,73.2,29.74,South,180,6.0,6.0,68,0.00,,,0.00,WUHU216EASYWX,2013-05-31 19:18:00,
2013-05-31 14:23:00,85.8,74.1,29.73,SE,135,2.2,2.2,68,0.00,,,0.00,WUHU216EASYWX,2013-05-31 19:23:00,
2013-05-31 14:28:00,85.1,73.4,29.73,South,180,7.6,7.6,68,0.00,,,0.00,WUHU216EASYWX,2013-05-31 19:28:00,
2013-05-31 14:33:00,85.3,73.6,29.73,East,90,3.8,3.8,68,0.00,,,0.00,WUHU216EASYWX,2013-05-31 19:33:00,
2013-05-31 14:38:00,85.6,73.9,29.73,NNW,338,4.5,4.5,68,0.00,,,0.00,WUHU216EASYWX,2013-05-31 19:38:00,
2013-05-31 14:43:00,85.8,74.1,29.73,SE,135,3.8,3.8,68,0.00,,,0.00,WUHU216EASYWX,2013-05-31 19:43:00,
2013-05-31 14:48:00,86.0,73.8,29.73,SW,225,7.6,7.6,67,0.00,,,0.00,WUHU216EASYWX,2013-05-31 19:48:00,
2013-05-31 14:53:00,87.1,74.5,29.73,SW,225,1.6,1.6,66,0.00,,,0.00,WUHU216EASYWX,2013-05-31 19:53:00,
2013-05-31 14:58:00,87.3,74.7,29.72,SE,135,3.8,3.8,66,0.00,,,0.00,WUHU216EASYWX,2013-05-31 19:58:00,
2013-05-31 15:03:00,86.7,73.6,29.72,East,90,3.8,3.8,65,0.00,,,0.00,WUHU216EASYWX,2013-05-31 20:03:00,
2013-05-31 15:08:00,86.7,73.6,29.72,SW,225,6.0,6.0,65,0.00,,,0.00,WUHU216EASYWX,2013-05-31 20:08:00,
2013-05-31 15:13:00,86.7,72.7,29.73,West,270,7.6,7.6,63,0.00,,,0.00,WUHU216EASYWX,2013-05-31 20:13:00,
2013-05-31 15:18:00,86.0,72.9,29.73,South,180,3.8,3.8,65,0.00,,,0.00,WUHU216EASYWX,2013-05-31 20:18:00,
2013-05-31 15:23:00,86.5,73.4,29.72,SE,135,5.4,5.4,65,0.00,,,0.00,WUHU216EASYWX,2013-05-31 20:23:00,
2013-05-31 15:28:00,86.7,73.2,29.72,NNW,338,9.9,9.9,64,0.00,,,0.00,WUHU216EASYWX,2013-05-31 20:28:00,
2013-05-31 15:33:00,86.9,73.4,29.72,SW,225,6.0,6.0,64,0.00,,,0.00,WUHU216EASYWX,2013-05-31 20:33:00,
2013-05-31 15:38:00,87.1,73.4,29.72,South,180,4.5,4.5,64,0.00,,,0.00,WUHU216EASYWX,2013-05-31 20:38:00,
2013-05-31 15:43:00,87.1,73.0,29.72,South,180,1.6,1.6,63,0.00,,,0.00,WUHU216EASYWX,2013-05-31 20:43:00,
2013-05-31 15:48:00,86.7,72.7,29.72,NW,315,5.4,5.4,63,0.00,,,0.00,WUHU216EASYWX,2013-05-31 20:48:00,
2013-05-31 15:53:00,86.7,72.7,29.72,SE,135,5.4,5.4,63,0.00,,,0.00,WUHU216EASYWX,2013-05-31 20:53:00,
2013-05-31 15:58:00,86.7,72.7,29.71,SW,225,6.0,6.0,63,0.00,,,0.00,WUHU216EASYWX,2013-05-31 20:58:00,
2013-05-31 16:03:00,87.1,73.4,29.71,SW,225,3.8,3.8,64,0.00,,,0.00,WUHU216EASYWX,2013-05-31 21:03:00,
2013-05-31 16:08:00,87.1,73.4,29.71,South,180,3.8,3.8,64,0.00,,,0.00,WUHU216EASYWX,2013-05-31 21:08:00,
2013-05-31 16:13:00,87.6,73.6,29.70,South,180,3.8,3.8,63,0.00,,,0.00,WUHU216EASYWX,2013-05-31 21:13:00,
2013-05-31 16:18:00,87.8,72.3,29.70,SW,225,9.9,9.9,60,0.00,,,0.00,WUHU216EASYWX,2013-05-31 21:18:00,
2013-05-31 16:23:00,88.2,73.0,29.70,South,180,5.4,5.4,61,0.00,,,0.00,WUHU216EASYWX,2013-05-31 21:23:00,
2013-05-31 16:28:00,88.2,73.0,29.69,West,270,6.9,6.9,61,0.00,,,0.00,WUHU216EASYWX,2013-05-31 21:28:00,
2013-05-31 16:33:00,88.2,73.6,29.69,South,180,3.1,3.1,62,0.00,,,0.00,WUHU216EASYWX,2013-05-31 21:33:00,
2013-05-31 16:38:00,88.3,73.2,29.69,East,90,6.9,6.9,61,0.00,,,0.00,WUHU216EASYWX,2013-05-31 21:38:00,
2013-05-31 16:43:00,88.3,73.2,29.68,SW,225,6.9,6.9,61,0.00,,,0.00,WUHU216EASYWX,2013-05-31 21:43:00,
2013-05-31 16:48:00,88.5,73.4,29.69,South,180,6.9,6.9,61,0.00,,,0.00,WUHU216EASYWX,2013-05-31 21:48:00,
2013-05-31 16:53:00,88.5,72.9,29.69,WNW,293,7.6,7.6,60,0.00,,,0.00,WUHU216EASYWX,2013-05-31 21:53:00,
2013-05-31 16:58:00,88.2,73.0,29.69,South,180,6.9,6.9,61,0.00,,,0.00,WUHU216EASYWX,2013-05-31 21:58:00,
2013-05-31 17:03:00,88.0,72.9,29.69,South,180,7.6,7.6,61,0.00,,,0.00,WUHU216EASYWX,2013-05-31 22:03:00,
2013-05-31 17:08:00,88.0,73.4,29.68,NW,315,7.6,7.6,62,0.00,,,0.00,WUHU216EASYWX,2013-05-31 22:08:00,
2013-05-31 17:13:00,88.2,73.0,29.68,South,180,7.6,7.6,61,0.00,,,0.00,WUHU216EASYWX,2013-05-31 22:13:00,
2013-05-31 17:18:00,88.2,73.0,29.67,SW,225,3.8,3.8,61,0.00,,,0.00,WUHU216EASYWX,2013-05-31 22:18:00,
2013-05-31 17:23:00,88.2,72.5,29.67,NW,315,8.3,8.3,60,0.00,,,0.00,WUHU216EASYWX,2013-05-31 22:23:00,
2013-05-31 17:28:00,87.6,73.0,29.67,South,180,3.8,3.8,62,0.00,,,0.00,WUHU216EASYWX,2013-05-31 22:28:00,
2013-05-31 17:33:00,87.8,73.2,29.65,South,180,7.6,7.6,62,0.00,,,0.00,WUHU216EASYWX,2013-05-31 22:33:00,
2013-05-31 17:38:00,87.8,73.2,29.64,SE,135,6.0,6.0,62,0.00,,,0.00,WUHU216EASYWX,2013-05-31 22:38:00,
2013-05-31 17:43:00,87.3,72.7,29.63,SW,225,6.9,6.9,62,0.00,,,0.00,WUHU216EASYWX,2013-05-31 22:43:00,
2013-05-31 17:48:00,87.3,72.7,29.61,South,180,6.9,6.9,62,0.00,,,0.00,WUHU216EASYWX,2013-05-31 22:48:00,
2013-05-31 17:53:00,87.1,73.4,29.60,NW,315,8.3,8.3,64,0.00,,,0.00,WUHU216EASYWX,2013-05-31 22:53:00,
2013-05-31 17:58:00,86.5,73.4,29.59,South,180,3.1,3.1,65,0.00,,,0.00,WUHU216EASYWX,2013-05-31 22:58:00,
2013-05-31 18:03:00,86.0,73.4,29.61,SW,225,7.6,7.6,66,0.00,,,0.00,WUHU216EASYWX,2013-05-31 23:03:00,
2013-05-31 18:08:00,86.0,73.4,29.62,South,180,6.9,6.9,66,0.00,,,0.00,WUHU216EASYWX,2013-05-31 23:08:00,
2013-05-31 18:13:00,85.6,73.0,29.63,West,270,7.6,7.6,66,0.00,,,0.00,WUHU216EASYWX,2013-05-31 23:13:00,
2013-05-31 18:18:00,85.5,72.9,29.64,South,180,5.4,5.4,66,0.00,,,0.00,WUHU216EASYWX,2013-05-31 23:18:00,
2013-05-31 18:23:00,85.3,72.7,29.63,SE,135,7.6,7.6,66,0.00,,,0.00,WUHU216EASYWX,2013-05-31 23:23:00,
2013-05-31 18:28:00,85.3,73.2,29.63,South,180,6.0,6.0,67,0.00,,,0.00,WUHU216EASYWX,2013-05-31 23:28:00,
2013-05-31 18:33:00,84.9,73.2,29.63,SW,225,6.9,6.9,68,0.00,,,0.00,WUHU216EASYWX,2013-05-31 23:33:00,
2013-05-31 18:38:00,84.9,73.2,29.63,South,180,2.2,2.2,68,0.00,,,0.00,WUHU216EASYWX,2013-05-31 23:38:00,
2013-05-31 18:43:00,84.7,73.0,29.64,South,180,3.1,3.1,68,0.00,,,0.00,WUHU216EASYWX,2013-05-31 23:43:00,
2013-05-31 18:48:00,84.7,73.0,29.64,East,90,2.2,2.2,68,0.00,,,0.00,WUHU216EASYWX,2013-05-31 23:48:00,
2013-05-31 18:53:00,84.4,73.2,29.65,SW,225,3.8,3.8,69,0.00,,,0.00,WUHU216EASYWX,2013-05-31 23:53:00,
2013-05-31 18:58:00,84.4,73.2,29.65,SW,225,3.1,3.1,69,0.00,,,0.00,WUHU216EASYWX,2013-05-31 23:58:00,
2013-05-31 19:03:00,84.2,73.4,29.66,South,180,1.6,1.6,70,0.00,,,0.00,WUHU216EASYWX,2013-06-01 00:03:00,
2013-05-31 19:08:00,84.2,73.4,29.65,South,180,3.1,3.1,70,0.00,,,0.00,WUHU216EASYWX,2013-06-01 00:08:00,
2013-05-31 19:13:00,84.0,73.6,29.65,SE,135,3.1,3.1,71,0.00,,,0.00,WUHU216EASYWX,2013-06-01 00:13:00,
2013-05-31 19:18:00,83.8,73.4,29.65,East,90,3.8,3.8,71,0.00,,,0.00,WUHU216EASYWX,2013-06-01 00:18:00,
2013-05-31 19:23:00,83.7,73.4,29.67,SW,225,4.5,4.5,71,0.00,,,0.00,WUHU216EASYWX,2013-06-01 00:23:00,
2013-05-31 19:28:00,83.7,73.4,29.64,East,90,4.5,4.5,71,0.00,,,0.00,WUHU216EASYWX,2013-06-01 00:28:00,
2013-05-31 19:33:00,83.7,73.4,29.63,North,0,3.1,3.1,71,0.00,,,0.00,WUHU216EASYWX,2013-06-01 00:33:00,
2013-05-31 19:38:00,83.3,73.0,29.65,East,90,3.8,3.8,71,0.00,,,0.00,WUHU216EASYWX,2013-06-01 00:38:00,
2013-05-31 19:43:00,83.3,72.5,29.68,South,180,2.2,2.2,70,0.00,,,0.00,WUHU216EASYWX,2013-06-01 00:43:00,
2013-05-31 19:48:00,83.5,72.7,29.70,NW,315,1.6,1.6,70,0.00,,,0.00,WUHU216EASYWX,2013-06-01 00:48:00,
2013-05-31 19:53:00,83.5,72.7,29.70,East,90,3.8,3.8,70,0.00,,,0.00,WUHU216EASYWX,2013-06-01 00:53:00,
2013-05-31 19:58:00,83.3,73.0,29.70,South,180,4.5,4.5,71,0.00,,,0.00,WUHU216EASYWX,2013-06-01 00:58:00,
2013-05-31 20:03:00,82.9,73.0,29.70,NE,45,0.7,0.7,72,0.00,,,0.00,WUHU216EASYWX,2013-06-01 01:03:00,
2013-05-31 20:09:00,82.9,73.0,29.69,East,90,2.2,2.2,72,0.00,,,0.00,WUHU216EASYWX,2013-06-01 01:09:00,
2013-05-31 20:14:00,82.9,73.0,29.68,East,90,3.1,3.1,72,0.00,,,0.00,WUHU216EASYWX,2013-06-01 01:14:00,
2013-05-31 20:19:00,82.8,72.9,29.68,East,90,6.0,6.0,72,0.00,,,0.00,WUHU216EASYWX,2013-06-01 01:19:00,
2013-05-31 20:24:00,82.9,73.0,29.68,East,90,6.9,6.9,72,0.00,,,0.00,WUHU216EASYWX,2013-06-01 01:24:00,
2013-05-31 20:29:00,82.9,72.7,29.70,South,180,3.1,3.1,71,0.00,,,0.00,WUHU216EASYWX,2013-06-01 01:29:00,
2013-05-31 20:34:00,83.1,72.9,29.72,WNW,297,4.6,5.4,71,0.00,,,0.00,WUHU216EASYWX,2013-06-01 01:34:00,
2013-05-31 20:39:00,83.1,72.9,29.72,NW,315,5.4,8.3,71,0.00,,,0.00,WUHU216EASYWX,2013-06-01 01:39:00,
2013-05-31 20:44:00,82.9,73.0,29.72,NE,45,2.2,2.2,72,0.00,,,0.00,WUHU216EASYWX,2013-06-01 01:44:00,
2013-05-31 20:49:00,82.8,73.2,29.72,West,270,2.2,2.2,73,0.00,,,0.00,WUHU216EASYWX,2013-06-01 01:49:00,
2013-05-31 20:54:00,82.8,73.2,29.73,SE,135,0.7,0.7,73,0.00,,,0.00,WUHU216EASYWX,2013-06-01 01:54:00,
2013-05-31 20:59:00,82.2,73.2,29.68,SE,135,4.6,5.4,74,0.00,,,0.00,WUHU216EASYWX,2013-06-01 01:59:00,
2013-05-31 21:04:00,82.2,73.2,29.67,East,90,3.8,3.8,74,0.00,,,0.00,WUHU216EASYWX,2013-06-01 02:04:00,
2013-05-31 21:09:00,82.0,73.0,29.65,SE,135,3.1,3.1,74,0.00,,,0.00,WUHU216EASYWX,2013-06-01 02:09:00,
2013-05-31 21:14:00,82.0,73.0,29.65,SE,135,3.1,3.1,74,0.00,,,0.00,WUHU216EASYWX,2013-06-01 02:14:00,
2013-05-31 21:19:00,82.0,72.5,29.65,ESE,115,6.8,7.6,73,0.00,,,0.00,WUHU216EASYWX,2013-06-01 02:19:00,
2013-05-31 21:24:00,82.0,72.5,29.65,SE,135,7.6,12.1,73,0.00,,,0.00,WUHU216EASYWX,2013-06-01 02:24:00,
2013-05-31 21:29:00,82.6,72.3,29.66,South,171,7.2,8.3,71,0.00,,,0.00,WUHU216EASYWX,2013-06-01 02:29:00,
2013-05-31 21:34:00,82.9,72.1,29.70,NW,315,3.1,3.1,70,0.00,,,0.00,WUHU216EASYWX,2013-06-01 02:34:00,
2013-05-31 21:39:00,82.9,72.1,29.70,NW,315,3.1,6.9,70,0.00,,,0.00,WUHU216EASYWX,2013-06-01 02:39:00,
2013-05-31 21:44:00,82.9,72.1,29.69,West,270,3.1,3.1,70,0.00,,,0.00,WUHU216EASYWX,2013-06-01 02:44:00,
2013-05-31 21:49:00,82.8,72.5,29.68,North,0,0.0,0.0,71,0.00,,,0.00,WUHU216EASYWX,2013-06-01 02:49:00,
2013-05-31 21:54:00,82.8,72.5,29.68,NE,45,0.0,0.7,71,0.00,,,0.00,WUHU216EASYWX,2013-06-01 02:54:00,
2013-05-31 21:59:00,82.4,72.5,29.68,SE,144,2.3,3.8,72,0.00,,,0.00,WUHU216EASYWX,2013-06-01 02:59:00,
2013-05-31 22:04:00,82.2,72.3,29.67,North,0,0.0,0.0,72,0.00,,,0.00,WUHU216EASYWX,2013-06-01 03:04:00,
2013-05-31 22:09:00,82.2,72.3,29.67,NE,45,0.0,1.6,72,0.00,,,0.00,WUHU216EASYWX,2013-06-01 03:09:00,
2013-05-31 22:14:00,82.8,72.0,29.65,South,191,3.0,4.5,70,0.00,,,0.00,WUHU216EASYWX,2013-06-01 03:14:00,
2013-05-31 22:19:00,83.1,72.0,29.67,West,270,0.7,0.7,69,0.00,,,0.00,WUHU216EASYWX,2013-06-01 03:19:00,
2013-05-31 22:24:00,83.1,72.0,29.69,North,0,0.7,0.7,69,0.00,,,0.00,WUHU216EASYWX,2013-06-01 03:24:00,
2013-05-31 22:29:00,83.1,72.0,29.69,North,0,0.7,1.6,69,0.00,,,0.00,WUHU216EASYWX,2013-06-01 03:29:00,
2013-05-31 22:34:00,83.3,71.2,29.73,SSE,158,1.6,1.6,67,0.00,,,0.00,WUHU216EASYWX,2013-06-01 03:34:00,
2013-05-31 22:39:00,83.7,72.0,29.74,SE,135,2.2,2.2,68,0.00,,,0.00,WUHU216EASYWX,2013-06-01 03:39:00,
2013-05-31 22:44:00,83.8,71.8,29.75,South,180,3.1,3.1,67,0.00,,,0.00,WUHU216EASYWX,2013-06-01 03:44:00,
2013-05-31 22:49:00,84.0,71.4,29.75,South,180,9.9,9.9,66,0.00,,,0.00,WUHU216EASYWX,2013-06-01 03:49:00,
2013-05-31 22:54:00,84.9,71.4,29.75,SE,135,6.9,6.9,64,0.00,,,0.00,WUHU216EASYWX,2013-06-01 03:54:00,
2013-05-31 22:59:00,84.2,71.2,29.72,SE,135,4.5,4.5,65,0.00,,,0.00,WUHU216EASYWX,2013-06-01 03:59:00,
2013-05-31 23:04:00,84.2,71.9,29.74,East,90,11.4,11.4,66,0.00,,,0.00,WUHU216EASYWX,2013-06-01 04:04:00,
2013-05-31 23:09:00,83.1,72.1,29.73,SE,135,5.4,5.4,69,0.00,,,0.00,WUHU216EASYWX,2013-06-01 04:09:00,
2013-05-31 23:14:00,83.3,71.9,29.73,South,180,13.7,13.7,68,0.00,,,0.00,WUHU216EASYWX,2013-06-01 04:14:00,
2013-05-31 23:19:00,83.5,72.1,29.73,East,90,5.4,5.4,68,0.00,,,0.00,WUHU216EASYWX,2013-06-01 04:19:00,
2013-05-31 23:24:00,83.3,71.9,29.73,East,90,9.9,9.9,68,0.00,,,0.00,WUHU216EASYWX,2013-06-01 04:24:00,
2013-05-31 23:29:00,83.1,71.7,29.73,SW,225,11.4,11.4,68,0.00,,,0.00,WUHU216EASYWX,2013-06-01 04:29:00,
2013-05-31 23:34:00,83.1,71.6,29.69,West,270,2.2,2.2,68,0.00,,,0.00,WUHU216EASYWX,2013-06-01 04:34:00,
2013-05-31 23:39:00,83.1,71.6,29.70,NW,315,3.1,3.1,68,0.00,,,0.00,WUHU216EASYWX,2013-06-01 04:39:00,
2013-05-31 23:44:00,82.9,71.4,29.71,NW,315,0.7,0.7,68,0.00,,,0.00,WUHU216EASYWX,2013-06-01 04:44:00,
2013-05-31 23:49:00,82.8,71.2,29.72,NW,315,3.1,3.1,68,0.00,,,0.00,WUHU216EASYWX,2013-06-01 04:49:00,
2013-05-31 23:54:00,82.6,70.5,29.71,SW,225,5.4,5.4,67,0.00,,,0.00,WUHU216EASYWX,2013-06-01 04:54:00,
2013-05-31 23:59:00,82.0,70.5,29.68,SE,135,3.1,3.1,68,0.01,,,0.00,WUHU216EASYWX,2013-06-01 04:59:00,